Time;durP1;ratioP1;P1;durP2;ratioP2;P2;SDS_P1;SDS_P2;PMS_P1;PMS_P2;Temp;Humidity;BMP_temperature;BMP_pressure;BME280_temperature;BME280_humidity;BME280_pressure;Samples;Min_cycle;Max_cycle;Signal;HPM_P1;HPM_P2
2023/01/17 00:01:05;;;;;;;4.18;1.80;;;3.70;99.90;;;;;;4970188;28;20723;-84
2023/01/17 00:03:32;;;;;;;4.55;1.60;;;3.80;99.90;;;;;;4966591;28;20555;-85
2023/01/17 00:11:42;;;;;;;3.38;1.80;;;3.90;99.90;;;;;;4979468;28;20050;-84
2023/01/17 00:14:08;;;;;;;5.65;2.03;;;3.80;99.90;;;;;;4983757;28;20036;-85
2023/01/17 00:16:34;;;;;;;8.50;2.30;;;3.70;99.90;;;;;;4998201;28;20050;-85
2023/01/17 01:33:39;;;;;;;5.30;1.70;;;3.20;99.90;;;;;;4986416;28;20083;-84
2023/01/17 01:36:06;;;;;;;3.83;1.80;;;3.20;99.90;;;;;;4967353;28;20068;-84
2023/01/17 01:38:32;;;;;;;10.98;2.55;;;3.30;99.90;;;;;;4986510;28;20095;-84
2023/01/17 01:40:58;;;;;;;7.53;1.95;;;3.30;99.90;;;;;;4983653;28;20054;-84
2023/01/17 01:43:45;;;;;;;4.85;1.90;;;3.30;99.90;;;;;;4971965;28;20490;-84
2023/01/17 01:46:19;;;;;;;5.93;2.30;;;3.30;99.90;;;;;;4990390;28;20032;-84
2023/01/17 01:48:53;;;;;;;4.80;2.05;;;3.30;99.90;;;;;;4999350;28;20039;-84
2023/01/17 01:51:26;;;;;;;3.00;1.77;;;3.30;99.90;;;;;;4968245;28;20039;-84
2023/01/17 01:53:58;;;;;;;6.25;1.90;;;3.30;99.90;;;;;;4966292;28;20037;-84
2023/01/17 01:56:26;;;;;;;5.80;2.00;;;3.30;99.90;;;;;;4966180;28;20046;-84
2023/01/17 01:58:52;;;;;;;9.75;2.08;;;3.30;99.90;;;;;;4998407;28;20080;-84
2023/01/17 02:01:18;;;;;;;10.57;3.03;;;3.30;99.90;;;;;;4984046;28;20046;-85
2023/01/17 02:03:45;;;;;;;9.25;2.28;;;3.40;99.90;;;;;;4967894;28;20085;-84
2023/01/17 02:06:26;;;;;;;10.35;2.38;;;3.40;99.90;;;;;;4967920;28;20035;-85
2023/01/17 02:08:51;;;;;;;5.65;1.95;;;3.40;99.90;;;;;;4968956;28;20371;-84
2023/01/17 02:11:17;;;;;;;9.73;1.90;;;3.40;99.90;;;;;;4967624;28;20133;-84
2023/01/17 02:13:43;;;;;;;8.55;2.10;;;3.30;99.90;;;;;;4967050;28;20042;-85
2023/01/17 02:16:42;;;;;;;6.47;2.00;;;3.20;99.90;;;;;;4965591;28;20402;-84
2023/01/17 02:19:37;;;;;;;12.45;2.38;;;3.20;99.90;;;;;;4984440;28;20053;-85
2023/01/17 02:22:24;;;;;;;9.55;1.92;;;3.20;99.90;;;;;;4965059;28;20036;-85
2023/01/17 02:25:05;;;;;;;10.65;2.17;;;3.20;99.90;;;;;;4983792;28;20055;-84
2023/01/17 02:27:53;;;;;;;7.68;2.10;;;3.20;99.90;;;;;;4975186;28;20387;-85
2023/01/17 02:30:32;;;;;;;7.60;2.10;;;3.20;99.90;;;;;;5003961;28;20043;-85
2023/01/17 02:33:24;;;;;;;9.25;2.40;;;3.20;99.90;;;;;;5011751;28;20031;-84
2023/01/17 02:36:08;;;;;;;7.28;2.08;;;3.20;99.90;;;;;;4970393;28;20042;-85
2023/01/17 02:38:34;;;;;;;9.73;2.17;;;3.20;99.90;;;;;;4979582;28;20491;-85
2023/01/17 02:41:08;;;;;;;7.15;2.20;;;3.30;99.90;;;;;;5007926;28;20046;-84
2023/01/17 02:43:36;;;;;;;9.23;1.90;;;3.30;99.90;;;;;;4964688;28;20410;-85
2023/01/17 02:46:01;;;;;;;7.93;2.00;;;3.30;99.90;;;;;;4980748;28;20034;-84
2023/01/17 02:48:31;;;;;;;9.35;2.42;;;3.30;99.90;;;;;;4967929;28;20047;-84
2023/01/17 02:51:26;;;;;;;6.03;2.60;;;3.30;99.90;;;;;;4967393;28;20133;-85
2023/01/17 02:54:09;;;;;;;8.93;2.30;;;3.40;99.90;;;;;;4969728;28;20050;-85
2023/01/17 02:56:56;;;;;;;5.50;2.10;;;3.50;99.90;;;;;;5002678;28;20052;-85
2023/01/17 03:00:06;;;;;;;6.55;2.40;;;3.40;99.90;;;;;;4966414;28;20506;-84
2023/01/17 03:03:02;;;;;;;5.47;1.90;;;3.30;99.90;;;;;;5048894;28;20052;-85
2023/01/17 03:05:38;;;;;;;4.45;1.90;;;3.20;99.90;;;;;;4963896;28;20042;-85
2023/01/17 03:08:04;;;;;;;7.75;2.05;;;3.10;99.90;;;;;;4985573;28;20046;-84
2023/01/17 03:10:32;;;;;;;5.88;2.03;;;3.10;99.90;;;;;;4971142;28;20084;-85
2023/01/17 03:13:00;;;;;;;6.13;2.20;;;3.10;99.90;;;;;;4965572;28;20035;-85
2023/01/17 03:15:25;;;;;;;5.75;2.05;;;3.00;99.90;;;;;;4966755;28;20441;-85
2023/01/17 03:17:55;;;;;;;6.18;2.38;;;3.00;99.90;;;;;;4998316;28;20046;-85
2023/01/17 03:20:21;;;;;;;3.75;1.77;;;2.90;99.90;;;;;;4992554;28;20664;-85
2023/01/17 03:22:46;;;;;;;6.28;1.70;;;3.00;99.90;;;;;;4970633;28;20042;-85
2023/01/17 03:25:12;;;;;;;4.80;1.88;;;2.90;99.90;;;;;;5004250;28;20078;-85
2023/01/17 03:27:38;;;;;;;4.93;1.80;;;3.00;99.90;;;;;;4965368;28;20042;-85
2023/01/17 03:30:04;;;;;;;7.50;2.30;;;3.00;99.90;;;;;;4968167;28;20123;-85
2023/01/17 03:32:30;;;;;;;6.97;2.10;;;3.00;99.90;;;;;;4997692;28;20049;-85
2023/01/17 03:34:55;;;;;;;10.50;2.40;;;3.20;99.90;;;;;;5010016;28;20546;-85
2023/01/17 03:37:21;;;;;;;9.10;2.00;;;3.20;99.90;;;;;;5001378;28;20561;-85
2023/01/17 03:39:47;;;;;;;6.50;2.20;;;3.20;99.90;;;;;;5002743;28;20111;-85
2023/01/17 03:42:12;;;;;;;8.65;2.63;;;3.20;99.90;;;;;;4982040;28;20066;-85
2023/01/17 03:44:38;;;;;;;6.30;2.00;;;3.10;99.90;;;;;;4987200;28;20446;-85
2023/01/17 03:47:04;;;;;;;5.50;1.77;;;3.10;99.90;;;;;;5035801;28;20125;-85
2023/01/17 03:49:30;;;;;;;6.70;1.88;;;3.10;99.90;;;;;;4990619;28;20166;-85
2023/01/17 03:51:55;;;;;;;10.07;2.28;;;3.10;99.90;;;;;;5007037;28;20034;-85
2023/01/17 03:54:21;;;;;;;7.55;1.70;;;3.00;99.90;;;;;;4999891;28;20093;-85
2023/01/17 03:56:47;;;;;;;5.72;1.80;;;3.00;99.90;;;;;;5005184;28;20030;-85
2023/01/17 03:59:12;;;;;;;7.90;1.80;;;3.00;99.90;;;;;;5024509;28;20040;-84
2023/01/17 04:01:38;;;;;;;6.45;2.20;;;2.90;99.90;;;;;;5026715;28;20119;-85
2023/01/17 04:04:03;;;;;;;6.50;2.25;;;2.80;99.90;;;;;;4989765;28;20046;-85
2023/01/17 04:06:29;;;;;;;10.30;2.58;;;2.70;99.90;;;;;;4993557;28;20043;-85
2023/01/17 04:08:55;;;;;;;6.53;2.17;;;2.70;99.90;;;;;;5027512;28;20445;-85
2023/01/17 04:11:20;;;;;;;5.78;1.88;;;2.70;99.90;;;;;;5008461;28;20036;-85
2023/01/17 04:13:46;;;;;;;6.00;2.00;;;2.70;99.90;;;;;;5035001;28;20067;-84
2023/01/17 04:16:15;;;;;;;8.52;2.60;;;2.70;99.90;;;;;;4992338;28;20087;-85
2023/01/17 04:18:41;;;;;;;6.05;2.33;;;2.70;99.90;;;;;;5005632;28;20179;-85
2023/01/17 04:21:07;;;;;;;5.03;1.95;;;2.80;99.90;;;;;;5010933;28;20451;-86
2023/01/17 04:23:33;;;;;;;6.82;2.20;;;2.80;99.90;;;;;;5051189;28;20524;-84
2023/01/17 04:25:59;;;;;;;8.77;2.00;;;2.90;99.90;;;;;;4985948;28;20074;-85
2023/01/17 04:28:25;;;;;;;5.18;1.95;;;2.90;99.90;;;;;;4971373;28;20144;-85
2023/01/17 04:30:50;;;;;;;5.97;2.03;;;2.90;99.90;;;;;;4971588;28;20045;-85
2023/01/17 04:33:17;;;;;;;4.60;1.80;;;2.90;99.90;;;;;;4976524;28;20039;-84
2023/01/17 04:35:42;;;;;;;6.63;1.98;;;2.90;99.90;;;;;;4994443;28;20164;-86
2023/01/17 04:38:08;;;;;;;5.82;2.00;;;2.80;99.90;;;;;;4970548;28;20120;-85
2023/01/17 04:40:33;;;;;;;2.65;1.80;;;2.70;99.90;;;;;;5030423;28;20057;-85
2023/01/17 04:42:59;;;;;;;2.72;1.60;;;2.70;99.90;;;;;;4979700;28;20140;-85
2023/01/17 04:45:25;;;;;;;7.15;2.15;;;2.70;99.90;;;;;;4989133;28;20042;-85
2023/01/17 04:47:50;;;;;;;4.90;1.70;;;2.60;99.90;;;;;;4979986;28;20065;-85
2023/01/17 04:50:17;;;;;;;6.50;1.80;;;2.60;99.90;;;;;;4998215;28;20032;-85
2023/01/17 04:52:43;;;;;;;5.88;1.70;;;2.60;99.90;;;;;;5005704;28;20035;-84
2023/01/17 04:55:08;;;;;;;6.13;2.40;;;2.50;99.90;;;;;;5022054;28;20044;-85
2023/01/17 04:57:34;;;;;;;7.38;2.00;;;2.50;99.90;;;;;;5013371;28;20045;-85
2023/01/17 05:00:00;;;;;;;3.50;1.70;;;2.40;99.90;;;;;;4990357;28;20464;-85
2023/01/17 05:02:25;;;;;;;4.47;1.80;;;2.30;99.90;;;;;;5003494;28;20480;-85
2023/01/17 05:04:51;;;;;;;9.27;2.20;;;2.20;99.90;;;;;;4987066;28;20602;-85
2023/01/17 05:07:16;;;;;;;5.15;1.92;;;2.20;99.90;;;;;;5039723;28;20125;-84
2023/01/17 05:09:42;;;;;;;5.07;1.88;;;2.10;99.90;;;;;;5043078;28;20036;-85
2023/01/17 05:12:08;;;;;;;6.43;1.98;;;2.10;99.90;;;;;;5055222;28;20036;-85
2023/01/17 05:14:34;;;;;;;4.40;2.03;;;2.20;99.90;;;;;;4995493;28;20143;-85
2023/01/17 05:17:01;;;;;;;6.43;2.22;;;2.20;99.90;;;;;;4969363;28;20084;-84
2023/01/17 05:19:27;;;;;;;4.60;2.00;;;2.30;99.90;;;;;;4983419;28;20418;-85
2023/01/17 05:21:53;;;;;;;4.70;2.13;;;2.40;99.90;;;;;;4986886;28;20436;-85
2023/01/17 05:24:19;;;;;;;9.98;2.10;;;2.40;99.90;;;;;;4976584;28;20469;-84
2023/01/17 05:26:53;;;;;;;7.97;1.90;;;2.40;99.90;;;;;;4984678;28;20035;-84
2023/01/17 05:29:20;;;;;;;7.55;2.22;;;2.30;99.90;;;;;;5001588;28;20058;-84
2023/01/17 05:31:45;;;;;;;7.93;2.35;;;2.20;99.90;;;;;;5003057;28;20411;-84
2023/01/17 05:34:11;;;;;;;7.18;2.10;;;2.10;99.90;;;;;;4969406;28;20034;-84
2023/01/17 05:36:37;;;;;;;5.72;2.30;;;2.00;99.90;;;;;;5004979;28;20040;-85
2023/01/17 05:39:02;;;;;;;5.10;1.70;;;1.90;99.90;;;;;;4971380;28;20035;-85
2023/01/17 05:41:28;;;;;;;4.97;2.22;;;1.90;99.90;;;;;;4994954;28;20059;-84
2023/01/17 05:43:53;;;;;;;8.75;2.10;;;1.90;99.90;;;;;;4985649;28;20534;-84
2023/01/17 05:46:19;;;;;;;2.92;2.13;;;1.80;99.90;;;;;;5006263;28;20054;-84
2023/01/17 05:48:45;;;;;;;4.95;1.98;;;1.80;99.90;;;;;;5001236;28;20035;-84
2023/01/17 05:51:10;;;;;;;8.45;3.08;;;1.80;99.90;;;;;;4981791;28;20042;-84
2023/01/17 05:53:36;;;;;;;9.57;2.67;;;1.70;99.90;;;;;;4975391;28;20034;-84
2023/01/17 05:56:01;;;;;;;9.13;2.13;;;1.70;99.90;;;;;;5020020;28;20522;-84
2023/01/17 05:58:27;;;;;;;4.32;1.95;;;1.70;99.90;;;;;;4971261;28;20038;-84
2023/01/17 06:00:54;;;;;;;4.03;2.00;;;1.60;99.90;;;;;;4994999;28;20308;-84
2023/01/17 06:03:20;;;;;;;7.95;2.70;;;1.60;99.90;;;;;;5017999;28;20429;-84
2023/01/17 06:05:46;;;;;;;4.07;2.20;;;1.60;99.90;;;;;;4984086;28;20039;-84
2023/01/17 06:08:11;;;;;;;6.88;2.13;;;1.60;99.90;;;;;;4968321;28;20046;-83
2023/01/17 06:10:37;;;;;;;7.00;2.33;;;1.50;99.90;;;;;;4989756;28;20050;-83
2023/01/17 06:13:05;;;;;;;7.00;2.40;;;1.40;99.90;;;;;;4985233;28;20034;-84
2023/01/17 06:15:32;;;;;;;10.38;2.20;;;1.40;99.90;;;;;;4980034;28;20039;-84
2023/01/17 06:17:57;;;;;;;3.47;1.90;;;1.30;99.90;;;;;;4964802;28;20376;-83
2023/01/17 06:20:23;;;;;;;5.85;2.35;;;1.30;99.90;;;;;;4966270;28;20054;-84
2023/01/17 06:22:49;;;;;;;5.38;2.15;;;1.20;99.90;;;;;;5001714;28;20511;-83
2023/01/17 06:25:14;;;;;;;10.15;2.30;;;1.10;99.90;;;;;;4984736;28;20083;-83
2023/01/17 06:27:40;;;;;;;5.18;2.15;;;1.10;99.90;;;;;;4972434;28;20049;-83
2023/01/17 06:30:06;;;;;;;2.58;2.00;;;1.00;99.90;;;;;;4968161;28;20411;-83
2023/01/17 06:32:32;;;;;;;6.15;2.63;;;1.00;99.90;;;;;;4983593;28;20542;-83
2023/01/17 06:34:57;;;;;;;7.32;2.55;;;0.90;99.90;;;;;;4983960;28;20047;-83
2023/01/17 06:37:23;;;;;;;8.15;2.40;;;0.90;99.90;;;;;;4966988;28;20103;-82
2023/01/17 06:39:49;;;;;;;4.07;2.00;;;0.80;99.90;;;;;;4986275;28;20394;-83
2023/01/17 06:42:14;;;;;;;5.80;2.03;;;0.80;99.90;;;;;;4967812;28;20851;-83
2023/01/17 06:44:40;;;;;;;7.85;2.42;;;0.80;99.90;;;;;;4967810;28;20046;-84
2023/01/17 06:47:05;;;;;;;5.57;2.25;;;0.70;99.90;;;;;;5004046;28;20042;-83
2023/01/17 06:49:31;;;;;;;7.25;2.33;;;0.70;99.90;;;;;;4967791;28;20517;-83
2023/01/17 06:51:57;;;;;;;4.70;2.22;;;0.60;99.90;;;;;;4961604;28;20038;-83
2023/01/17 06:54:22;;;;;;;4.47;2.20;;;0.60;99.90;;;;;;4967545;28;20043;-83
2023/01/17 06:56:48;;;;;;;3.25;2.10;;;0.60;99.90;;;;;;4964655;28;20056;-82
2023/01/17 06:59:14;;;;;;;4.72;1.83;;;0.50;99.90;;;;;;4967846;28;20042;-83
2023/01/17 07:01:40;;;;;;;7.50;2.30;;;0.60;99.90;;;;;;4981807;28;20636;-83
2023/01/17 07:04:05;;;;;;;4.40;1.77;;;0.50;99.90;;;;;;4968247;28;20049;-83
2023/01/17 07:06:31;;;;;;;4.32;1.90;;;0.50;99.90;;;;;;5009842;28;20040;-83
2023/01/17 07:08:57;;;;;;;4.72;1.88;;;0.40;99.90;;;;;;4969063;28;20041;-83
2023/01/17 07:11:23;;;;;;;6.07;2.00;;;0.40;99.90;;;;;;4984898;28;20046;-82
2023/01/17 07:13:49;;;;;;;4.97;2.15;;;0.30;99.90;;;;;;4967821;28;20407;-83
2023/01/17 07:16:14;;;;;;;3.40;2.10;;;0.30;99.90;;;;;;4969360;28;20117;-82
2023/01/17 07:18:40;;;;;;;4.15;2.05;;;0.30;99.90;;;;;;4967455;28;20046;-82
2023/01/17 07:21:14;;;;;;;7.07;1.88;;;0.30;99.90;;;;;;4973737;28;20577;-82
2023/01/17 07:23:40;;;;;;;6.38;2.45;;;0.30;99.90;;;;;;4969191;28;20038;-82
2023/01/17 07:26:06;;;;;;;6.82;2.30;;;0.30;99.90;;;;;;4962506;28;20035;-82
2023/01/17 07:28:32;;;;;;;5.13;2.20;;;0.30;99.90;;;;;;4981693;28;20571;-82
2023/01/17 07:30:57;;;;;;;3.50;2.00;;;0.30;99.90;;;;;;4966913;28;20069;-82
2023/01/17 07:33:23;;;;;;;4.40;2.80;;;0.30;99.90;;;;;;4968875;28;20559;-82
2023/01/17 07:35:49;;;;;;;4.32;2.05;;;0.30;99.90;;;;;;4966335;28;20125;-82
2023/01/17 07:38:16;;;;;;;7.32;2.00;;;0.40;99.90;;;;;;4967955;28;20043;-82
2023/01/17 07:40:43;;;;;;;4.63;2.17;;;0.50;99.90;;;;;;4983081;28;20050;-82
2023/01/17 07:43:14;;;;;;;2.78;1.98;;;0.50;99.90;;;;;;4969239;28;20042;-82
2023/01/17 07:45:44;;;;;;;7.05;2.60;;;0.50;99.90;;;;;;4999920;28;20387;-82
2023/01/17 07:48:11;;;;;;;6.70;2.20;;;0.60;99.90;;;;;;4967499;28;20047;-82
2023/01/17 07:50:37;;;;;;;2.30;1.80;;;0.60;99.90;;;;;;4977615;28;20121;-82
2023/01/17 07:53:04;;;;;;;3.67;1.77;;;0.60;99.90;;;;;;4969331;28;20046;-82
2023/01/17 07:55:29;;;;;;;4.90;2.08;;;0.60;99.90;;;;;;4979651;28;20509;-82
2023/01/17 07:57:55;;;;;;;6.28;2.10;;;0.70;99.90;;;;;;4966752;28;20076;-82
2023/01/17 08:00:27;;;;;;;4.95;2.40;;;0.70;99.90;;;;;;4980613;28;20459;-82
2023/01/17 08:03:00;;;;;;;10.00;2.20;;;0.80;99.90;;;;;;4985681;28;20080;-82
2023/01/17 08:05:26;;;;;;;6.38;2.13;;;0.80;99.90;;;;;;4983593;28;20125;-82
2023/01/17 08:07:53;;;;;;;6.10;3.08;;;0.80;99.90;;;;;;4965095;28;20482;-82
2023/01/17 08:10:19;;;;;;;7.00;2.30;;;0.90;99.90;;;;;;4964771;28;20045;-82
2023/01/17 08:12:48;;;;;;;7.60;3.13;;;0.90;99.90;;;;;;4983915;28;20043;-82
2023/01/17 08:15:15;;;;;;;4.28;2.25;;;1.10;99.90;;;;;;4965544;28;20035;-82
2023/01/17 08:17:51;;;;;;;5.13;2.10;;;1.10;99.90;;;;;;4966768;28;20043;-82
2023/01/17 08:20:18;;;;;;;7.40;2.63;;;1.20;99.90;;;;;;4966161;28;20554;-82
2023/01/17 08:22:44;;;;;;;6.20;1.83;;;1.20;99.90;;;;;;4966391;28;20046;-82
2023/01/17 08:25:09;;;;;;;3.90;1.70;;;1.30;99.90;;;;;;4983483;28;20582;-82
2023/01/17 08:27:35;;;;;;;5.43;1.85;;;1.30;99.90;;;;;;4988816;28;20046;-82
2023/01/17 08:30:01;;;;;;;7.28;2.78;;;1.40;99.90;;;;;;4963914;28;20034;-82
2023/01/17 08:32:26;;;;;;;4.43;2.10;;;1.60;99.90;;;;;;4966738;28;20030;-82
2023/01/17 08:34:52;;;;;;;6.75;2.00;;;1.80;99.90;;;;;;4983404;28;20070;-82
2023/01/17 08:37:17;;;;;;;5.45;2.47;;;1.90;99.90;;;;;;4983484;28;20134;-82
2023/01/17 08:39:43;;;;;;;4.97;2.30;;;1.90;99.90;;;;;;4980515;28;20546;-82
2023/01/17 08:42:09;;;;;;;11.40;2.72;;;1.90;99.90;;;;;;4980784;28;20086;-82
2023/01/17 08:44:34;;;;;;;8.35;2.50;;;2.00;99.90;;;;;;4979988;28;20043;-81
2023/01/17 08:47:00;;;;;;;5.65;2.53;;;2.20;99.90;;;;;;4962552;28;20046;-82
2023/01/17 08:49:26;;;;;;;6.90;2.40;;;2.30;99.90;;;;;;4960848;28;20050;-81
2023/01/17 08:51:51;;;;;;;4.43;1.73;;;2.40;99.90;;;;;;4985181;28;20046;-81
2023/01/17 08:54:17;;;;;;;5.63;2.10;;;2.50;99.90;;;;;;4970191;28;20048;-81
2023/01/17 08:56:45;;;;;;;4.07;2.10;;;2.50;99.90;;;;;;4967543;28;20042;-81
2023/01/17 08:59:11;;;;;;;5.22;2.25;;;2.50;99.90;;;;;;5057079;28;20041;-81
2023/01/17 09:01:40;;;;;;;4.05;2.03;;;2.60;99.90;;;;;;4984626;28;20035;-82
2023/01/17 09:04:09;;;;;;;4.85;2.17;;;2.60;99.90;;;;;;4973137;28;20043;-81
2023/01/17 09:06:38;;;;;;;7.43;2.40;;;2.60;99.90;;;;;;5027664;28;20035;-81
2023/01/17 09:09:04;;;;;;;3.63;2.33;;;2.70;99.90;;;;;;5011935;28;20092;-81
2023/01/17 09:11:30;;;;;;;4.38;2.28;;;2.70;99.90;;;;;;5005052;28;20440;-81
2023/01/17 09:13:56;;;;;;;6.35;2.40;;;2.70;99.90;;;;;;5011627;27;20039;-81
2023/01/17 09:16:22;;;;;;;4.35;2.00;;;2.70;99.90;;;;;;4967774;28;20043;-81
2023/01/17 09:18:47;;;;;;;5.53;2.22;;;2.80;99.90;;;;;;4967853;28;20042;-81
2023/01/17 09:21:15;;;;;;;6.88;2.20;;;2.80;99.90;;;;;;4990236;28;20053;-81
2023/01/17 09:23:42;;;;;;;5.72;2.83;;;2.80;99.90;;;;;;4988856;28;20046;-81
2023/01/17 09:26:20;;;;;;;5.70;2.28;;;2.90;99.90;;;;;;4983234;28;20050;-81
2023/01/17 09:28:46;;;;;;;6.95;2.90;;;3.00;99.90;;;;;;4981958;28;20414;-81
2023/01/17 09:31:12;;;;;;;8.55;3.38;;;3.00;99.90;;;;;;4967145;28;20034;-81
2023/01/17 09:33:41;;;;;;;5.88;2.28;;;3.10;99.90;;;;;;4986796;28;20466;-81
2023/01/17 09:36:07;;;;;;;5.28;2.38;;;3.20;99.90;;;;;;4970535;28;20034;-81
2023/01/17 09:38:33;;;;;;;3.53;1.88;;;3.30;99.90;;;;;;4980992;28;20162;-81
2023/01/17 09:41:01;;;;;;;6.32;2.22;;;3.50;99.90;;;;;;4983673;28;20054;-81
2023/01/17 09:43:36;;;;;;;7.55;2.17;;;3.60;99.90;;;;;;4969001;28;20048;-81
2023/01/17 09:46:02;;;;;;;6.68;2.22;;;3.70;99.90;;;;;;4984323;28;20787;-81
2023/01/17 09:48:36;;;;;;;6.35;2.30;;;3.80;99.90;;;;;;5031896;28;20076;-81
2023/01/17 09:51:21;;;;;;;7.03;1.98;;;3.80;99.90;;;;;;5005607;28;20554;-80
2023/01/17 09:53:47;;;;;;;6.05;2.10;;;3.70;99.90;;;;;;4975908;28;20079;-81
2023/01/17 09:56:26;;;;;;;2.88;2.03;;;3.60;99.90;;;;;;4970024;28;20046;-80
2023/01/17 09:58:52;;;;;;;2.67;1.90;;;3.50;99.90;;;;;;4983686;28;20039;-81
2023/01/17 10:01:26;;;;;;;4.95;1.90;;;3.40;99.90;;;;;;5061601;28;20039;-80
2023/01/17 10:04:29;;;;;;;6.53;2.10;;;3.40;99.90;;;;;;5013400;28;20038;-81
2023/01/17 10:07:13;;;;;;;3.33;2.10;;;3.50;99.90;;;;;;5014416;27;20046;-80
2023/01/17 10:10:20;;;;;;;11.25;2.08;;;3.60;99.90;;;;;;4969733;28;20038;-81
2023/01/17 10:12:56;;;;;;;4.40;1.90;;;3.80;99.90;;;;;;4984043;28;20049;-80
2023/01/17 10:15:51;;;;;;;8.77;2.33;;;4.00;99.90;;;;;;4969467;28;20375;-80
2023/01/17 10:18:42;;;;;;;4.70;1.85;;;4.10;99.90;;;;;;5007593;28;20693;-80
2023/01/17 10:21:29;;;;;;;3.63;1.90;;;4.20;99.90;;;;;;4965403;28;20038;-80
2023/01/17 10:24:15;;;;;;;3.22;1.70;;;4.30;99.90;;;;;;5060161;27;20508;-80
2023/01/17 10:26:51;;;;;;;5.00;1.77;;;4.40;99.90;;;;;;4993215;28;20077;-80
2023/01/17 10:29:18;;;;;;;3.50;1.85;;;4.50;99.90;;;;;;5067033;28;20456;-80
2023/01/17 10:31:51;;;;;;;4.00;1.65;;;4.50;99.90;;;;;;4987525;28;20027;-80
2023/01/17 10:34:43;;;;;;;4.72;2.00;;;4.60;99.90;;;;;;4998652;28;20055;-80
2023/01/17 10:37:23;;;;;;;4.75;1.92;;;4.60;99.90;;;;;;4967590;28;20059;-80
2023/01/17 10:39:52;;;;;;;4.65;2.45;;;4.70;99.90;;;;;;4967404;28;20864;-80
2023/01/17 10:42:45;;;;;;;2.63;1.70;;;4.70;99.90;;;;;;5000550;28;20410;-80
2023/01/17 10:45:27;;;;;;;2.78;1.90;;;4.70;99.90;;;;;;4969221;28;20050;-80
2023/01/17 10:48:15;;;;;;;2.97;1.77;;;4.80;99.90;;;;;;4983684;28;20051;-80
2023/01/17 10:50:57;;;;;;;2.75;2.20;;;4.80;99.90;;;;;;4984301;28;20038;-80
2023/01/17 10:53:41;;;;;;;7.20;2.25;;;4.90;99.90;;;;;;5022491;28;20090;-80
2023/01/17 10:56:08;;;;;;;4.23;1.90;;;5.00;99.90;;;;;;4981481;28;20069;-80
2023/01/17 10:58:34;;;;;;;4.05;1.98;;;5.10;99.90;;;;;;4968814;28;20494;-80
2023/01/17 11:01:01;;;;;;;5.22;2.15;;;5.20;99.90;;;;;;4981252;28;20034;-80
2023/01/17 11:03:28;;;;;;;6.55;2.10;;;5.30;99.90;;;;;;5000592;28;20494;-80
2023/01/17 11:06:18;;;;;;;10.20;2.45;;;5.40;99.90;;;;;;4965723;28;20053;-80
2023/01/17 11:08:53;;;;;;;4.72;2.08;;;5.50;99.90;;;;;;4970300;28;20053;-80
2023/01/17 11:11:31;;;;;;;4.68;1.90;;;5.60;99.90;;;;;;4964771;28;20046;-80
2023/01/17 11:14:06;;;;;;;5.35;2.00;;;5.50;99.90;;;;;;4983670;28;20091;-80
2023/01/17 11:16:32;;;;;;;4.28;1.90;;;5.50;99.90;;;;;;4968918;28;20034;-80
2023/01/17 11:19:26;;;;;;;3.97;1.88;;;5.50;99.90;;;;;;4993433;28;20036;-80
2023/01/17 11:21:56;;;;;;;5.45;1.98;;;5.50;99.90;;;;;;4965032;28;20118;-80
2023/01/17 11:24:35;;;;;;;4.35;1.90;;;5.70;99.90;;;;;;4968160;28;20513;-80
2023/01/17 11:27:03;;;;;;;6.45;1.90;;;5.60;99.90;;;;;;4962881;28;20045;-80
2023/01/17 11:29:34;;;;;;;6.10;2.00;;;5.50;99.90;;;;;;4983661;28;20061;-80
2023/01/17 11:32:30;;;;;;;4.80;1.90;;;5.50;99.90;;;;;;4979684;28;20042;-80
2023/01/17 11:35:29;;;;;;;5.78;1.70;;;5.40;99.90;;;;;;4962775;28;20038;-80
2023/01/17 11:38:03;;;;;;;3.13;1.95;;;5.40;99.90;;;;;;4986884;28;20046;-80
2023/01/17 11:40:30;;;;;;;5.32;1.88;;;5.70;99.90;;;;;;4961671;28;20666;-80
2023/01/17 11:43:21;;;;;;;6.13;1.85;;;5.90;99.90;;;;;;4996568;28;20266;-81
2023/01/17 11:46:16;;;;;;;4.85;1.70;;;5.90;99.90;;;;;;4976198;28;20107;-80
2023/01/17 11:48:52;;;;;;;5.65;1.83;;;5.90;99.90;;;;;;4977439;28;20042;-81
2023/01/17 11:51:21;;;;;;;5.18;2.00;;;6.00;99.90;;;;;;4956752;28;20054;-81
2023/01/17 11:53:47;;;;;;;4.43;1.70;;;6.10;99.90;;;;;;5022907;27;20040;-81
2023/01/17 11:56:28;;;;;;;4.70;1.60;;;6.20;99.90;;;;;;5013620;28;20046;-81
2023/01/17 11:59:17;;;;;;;4.68;1.90;;;6.20;99.90;;;;;;4976878;28;20157;-81
2023/01/17 12:02:03;;;;;;;5.82;2.20;;;6.20;99.90;;;;;;4987544;28;20659;-81
2023/01/17 12:04:59;;;;;;;6.35;1.98;;;6.00;99.90;;;;;;4964350;28;20042;-81
2023/01/17 12:07:38;;;;;;;5.97;2.15;;;5.70;99.90;;;;;;4978853;28;20101;-81
2023/01/17 12:10:13;;;;;;;6.18;2.10;;;5.50;99.90;;;;;;4965425;28;20514;-81
2023/01/17 12:15:48;;;;;;;6.85;1.80;;;5.40;99.90;;;;;;4976863;28;20074;-81
2023/01/17 12:18:23;;;;;;;6.68;1.60;;;5.50;99.90;;;;;;5014981;28;20046;-81
2023/01/17 12:21:00;;;;;;;4.78;1.90;;;5.70;99.90;;;;;;4961864;28;20046;-81
2023/01/17 12:23:48;;;;;;;7.07;2.03;;;5.80;99.90;;;;;;5021541;28;20044;-81
2023/01/17 12:26:19;;;;;;;6.45;2.00;;;5.70;99.90;;;;;;4995872;28;20503;-81
2023/01/17 12:29:03;;;;;;;3.53;1.75;;;5.70;99.90;;;;;;4966145;28;20039;-81
2023/01/17 12:31:37;;;;;;;4.03;2.00;;;5.60;99.90;;;;;;4983363;28;20121;-82
2023/01/17 12:34:26;;;;;;;5.75;1.70;;;5.60;99.90;;;;;;5015388;28;20122;-82
2023/01/17 12:37:05;;;;;;;5.47;1.88;;;5.60;99.90;;;;;;4974637;28;20285;-81
2023/01/17 12:40:16;;;;;;;4.97;1.70;;;5.60;99.90;;;;;;4981696;28;20042;-81
2023/01/17 12:42:56;;;;;;;3.83;1.70;;;5.60;99.90;;;;;;4996399;28;20039;-82
2023/01/17 12:45:33;;;;;;;4.93;1.90;;;5.60;99.90;;;;;;4985009;28;20047;-82
2023/01/17 12:48:04;;;;;;;5.57;1.67;;;5.50;99.90;;;;;;4968979;28;20050;-81
2023/01/17 12:50:41;;;;;;;6.20;2.25;;;5.50;99.90;;;;;;4965541;28;20056;-82
2023/01/17 12:53:30;;;;;;;4.40;1.90;;;5.60;99.90;;;;;;4984645;28;20034;-82
2023/01/17 12:55:59;;;;;;;5.03;1.75;;;5.60;99.90;;;;;;5000004;28;20064;-82
2023/01/17 12:58:29;;;;;;;3.88;1.70;;;5.60;99.90;;;;;;4986957;28;20074;-82
2023/01/17 13:01:20;;;;;;;3.92;2.25;;;5.70;99.90;;;;;;5003930;28;20046;-82
2023/01/17 13:03:52;;;;;;;3.83;1.90;;;5.70;99.90;;;;;;4970823;28;20056;-82
2023/01/17 13:06:30;;;;;;;2.15;1.50;;;5.70;99.90;;;;;;4967488;28;20038;-82
2023/01/17 13:08:59;;;;;;;4.50;1.55;;;5.70;99.90;;;;;;4970143;28;20472;-82
2023/01/17 13:11:50;;;;;;;2.15;1.48;;;5.70;99.90;;;;;;4968519;28;20058;-82
2023/01/17 13:14:16;;;;;;;2.10;1.67;;;5.60;99.90;;;;;;4998652;28;20035;-82
2023/01/17 13:17:11;;;;;;;5.22;1.80;;;5.60;99.90;;;;;;4973077;28;20038;-82
2023/01/17 13:19:49;;;;;;;4.55;1.80;;;5.60;99.90;;;;;;5003060;28;20054;-82
2023/01/17 13:22:18;;;;;;;6.90;1.60;;;5.60;99.90;;;;;;4970310;28;20042;-82
2023/01/17 13:24:54;;;;;;;3.22;1.85;;;5.60;99.90;;;;;;5001837;28;20032;-82
2023/01/17 13:27:56;;;;;;;3.67;1.83;;;5.60;99.90;;;;;;5004885;28;20088;-82
2023/01/17 13:30:42;;;;;;;3.10;1.70;;;5.70;99.90;;;;;;4981335;28;20512;-82
2023/01/17 13:33:40;;;;;;;5.93;1.90;;;5.70;99.90;;;;;;4968632;28;20041;-82
2023/01/17 13:36:20;;;;;;;2.35;1.70;;;5.80;99.90;;;;;;5016002;28;20044;-82
2023/01/17 13:39:02;;;;;;;2.10;1.90;;;5.80;99.90;;;;;;4983666;28;20070;-82
2023/01/17 13:41:55;;;;;;;7.65;1.50;;;5.80;99.90;;;;;;4968911;28;20153;-82
2023/01/17 13:44:26;;;;;;;2.63;1.60;;;5.70;99.90;;;;;;4986472;28;20051;-82
2023/01/17 13:47:03;;;;;;;3.03;1.70;;;5.70;99.90;;;;;;4988081;28;20540;-82
2023/01/17 13:49:28;;;;;;;6.43;2.03;;;5.60;99.90;;;;;;5001109;28;20035;-82
2023/01/17 13:52:09;;;;;;;3.70;1.70;;;5.60;99.90;;;;;;5021925;28;20043;-82
2023/01/17 13:54:43;;;;;;;2.08;1.88;;;5.50;99.90;;;;;;5036421;28;20042;-82
2023/01/17 13:57:40;;;;;;;;;;;5.50;99.90;;;;;;5024967;28;20106;-82
2023/01/17 14:00:20;;;;;;;2.25;1.70;;;5.30;99.90;;;;;;5005008;28;19925;-82
2023/01/17 14:02:47;;;;;;;2.08;1.60;;;5.30;99.90;;;;;;4979660;28;20051;-82
2023/01/17 14:05:14;;;;;;;3.33;1.95;;;5.20;99.90;;;;;;5009563;28;20040;-82
2023/01/17 14:07:55;;;;;;;3.83;1.77;;;5.10;99.90;;;;;;5002149;28;20082;-82
2023/01/17 14:10:21;;;;;;;4.57;2.00;;;5.10;99.90;;;;;;4982650;28;20046;-82
2023/01/17 14:12:48;;;;;;;2.13;1.95;;;5.10;99.90;;;;;;5023706;28;20042;-82
2023/01/17 14:15:28;;;;;;;2.83;1.63;;;5.10;99.90;;;;;;5021620;28;20038;-82
2023/01/17 14:18:02;;;;;;;2.05;1.70;;;5.10;99.90;;;;;;5008452;28;20042;-82
2023/01/17 14:20:49;;;;;;;2.42;1.60;;;5.00;99.90;;;;;;5045343;28;20039;-82
2023/01/17 14:23:46;;;;;;;4.30;1.65;;;5.00;99.90;;;;;;5023045;28;20045;-82
2023/01/17 14:26:40;;;;;;;4.28;1.90;;;5.10;99.90;;;;;;5024872;28;20044;-82
2023/01/17 14:29:44;;;;;;;5.93;2.30;;;5.20;99.90;;;;;;4992126;28;20050;-82
2023/01/17 14:32:16;;;;;;;3.95;1.80;;;5.10;99.90;;;;;;5005146;28;20050;-82
2023/01/17 14:34:44;;;;;;;2.50;1.80;;;5.10;99.90;;;;;;5011445;28;20036;-82
2023/01/17 14:37:17;;;;;;;5.15;2.10;;;5.10;99.90;;;;;;5023632;28;20036;-82
2023/01/17 14:39:45;;;;;;;4.72;2.05;;;5.00;99.90;;;;;;5013125;28;20038;-82
2023/01/17 14:42:14;;;;;;;1.60;1.50;;;5.00;99.90;;;;;;5018435;28;20502;-81
2023/01/17 14:44:43;;;;;;;5.38;1.85;;;5.00;99.90;;;;;;5009202;28;20458;-82
2023/01/17 14:47:13;;;;;;;7.05;1.98;;;4.90;99.90;;;;;;4970019;28;20042;-82